Edenderry, Ireland
Current Conditions -  °F | °C
As of 5:00 AM on Tuesday 27 Jan 2015 (Local Time) from EIME Reporting Station
Broken Clouds Broken Clouds  
Wind Chill: 33°   Ceiling: 2400
Heat Index: 41°   Visibility: 6mi
Dew Point: 39°   Wind: 15mph
Humidity: 93%   Direction: 230°SW
Pressure: 30.36"   Gusts: NA
Location:  53.34°N, 7.05°W
Report Text: EIME 270500Z 23013KT 9999 FEW012 BKN024 05/04 Q1028
Loading
Personal Weather Stations






























Interactive Weather Map New forecast layout! Learn more

10-Day Weather Forecast

Advertisements
Track Severe Weather on mobile